Time;durP1;ratioP1;P1;durP2;ratioP2;P2;SDS_P1;SDS_P2;PMS_P1;PMS_P2;Temp;Humidity;BMP_temperature;BMP_pressure;BME280_temperature;BME280_humidity;BME280_pressure;Samples;Min_cycle;Max_cycle;Signal;HPM_P1;HPM_P2
2023/12/13 00:01:38;;;;;;;56.38;37.40;;;;;;;;;;5099323;28;20043;-80
2023/12/13 00:04:04;;;;;;;53.40;35.40;;;;;;;;;;5116375;28;20043;-79
2023/12/13 00:06:34;;;;;;;60.65;38.38;;;;;;;;;;5081303;28;20398;-80
2023/12/13 00:09:03;;;;;;;58.92;39.35;;;;;;;;;;5081264;28;20065;-80
2023/12/13 00:11:29;;;;;;;61.55;39.20;;;;;;;;;;5081719;28;20067;-79
2023/12/13 00:13:55;;;;;;;62.33;38.33;;;;;;;;;;5081427;28;20101;-80
2023/12/13 00:16:23;;;;;;;57.53;36.67;;;;;;;;;;5098229;28;20138;-79
2023/12/13 00:18:49;;;;;;;63.38;37.38;;;;;;;;;;5098352;28;20107;-79
2023/12/13 00:21:17;;;;;;;42.78;32.70;;;;;;;;;;5098328;28;20092;-79
2023/12/13 00:23:43;;;;;;;56.28;35.25;;;;;;;;;;5098001;28;20083;-80
2023/12/13 00:26:19;;;;;;;44.60;33.53;;;;;;;;;;5098237;28;20040;-79
2023/12/13 00:28:45;;;;;;;42.85;31.23;;;;;;;;;;5097822;28;20044;-79
2023/12/13 00:31:12;;;;;;;44.40;29.25;;;;;;;;;;5080923;28;20144;-79
2023/12/13 00:33:39;;;;;;;42.83;29.15;;;;;;;;;;5081030;28;20096;-79
2023/12/13 00:36:06;;;;;;;44.08;30.90;;;;;;;;;;5080819;28;20047;-79
2023/12/13 00:38:33;;;;;;;39.88;26.88;;;;;;;;;;5080564;28;20054;-79
2023/12/13 00:40:59;;;;;;;31.90;25.83;;;;;;;;;;5079992;28;20495;-79
2023/12/13 00:43:26;;;;;;;30.10;22.15;;;;;;;;;;5098499;28;20062;-79
2023/12/13 00:45:52;;;;;;;27.55;21.92;;;;;;;;;;5097233;28;20062;-79
2023/12/13 00:48:18;;;;;;;28.13;21.05;;;;;;;;;;5097164;28;20097;-79
2023/12/13 00:50:44;;;;;;;26.77;20.08;;;;;;;;;;5097500;28;20130;-79
2023/12/13 00:53:12;;;;;;;25.98;20.00;;;;;;;;;;5097478;28;20059;-79
2023/12/13 00:55:38;;;;;;;28.95;19.98;;;;;;;;;;5097454;28;20399;-79
2023/12/13 00:58:04;;;;;;;24.70;17.98;;;;;;;;;;5097291;28;20040;-80
2023/12/13 01:00:30;;;;;;;23.27;18.45;;;;;;;;;;5080483;28;20449;-80
2023/12/13 01:02:57;;;;;;;23.17;16.48;;;;;;;;;;5097307;28;20115;-80
2023/12/13 01:05:23;;;;;;;25.83;18.65;;;;;;;;;;5097214;28;20083;-80
2023/12/13 01:07:49;;;;;;;24.02;17.05;;;;;;;;;;5097058;28;20044;-79
2023/12/13 01:10:15;;;;;;;25.58;18.17;;;;;;;;;;5097173;28;20130;-80
2023/12/13 01:12:42;;;;;;;21.60;16.50;;;;;;;;;;5097113;28;20051;-79
2023/12/13 01:15:09;;;;;;;19.85;15.98;;;;;;;;;;5115102;28;20059;-80
2023/12/13 01:17:35;;;;;;;19.15;15.50;;;;;;;;;;5097356;28;20079;-79
2023/12/13 01:20:01;;;;;;;24.10;16.13;;;;;;;;;;5096993;28;20458;-79
2023/12/13 01:22:27;;;;;;;20.98;15.07;;;;;;;;;;5096739;28;20436;-79
2023/12/13 01:24:54;;;;;;;24.10;15.68;;;;;;;;;;5097253;28;20077;-79
2023/12/13 01:27:20;;;;;;;21.85;15.63;;;;;;;;;;5097131;28;20039;-79
2023/12/13 01:29:46;;;;;;;19.85;14.88;;;;;;;;;;5080679;28;20047;-79
2023/12/13 01:32:13;;;;;;;18.88;13.40;;;;;;;;;;5096789;28;20059;-79
2023/12/13 01:34:39;;;;;;;17.38;14.07;;;;;;;;;;5096802;28;20458;-79
2023/12/13 01:37:05;;;;;;;16.25;14.52;;;;;;;;;;5096608;28;20048;-79
2023/12/13 01:39:31;;;;;;;16.88;13.73;;;;;;;;;;5063220;28;20075;-79
2023/12/13 01:41:57;;;;;;;19.48;15.52;;;;;;;;;;5097460;28;20040;-79
2023/12/13 01:44:23;;;;;;;17.88;13.90;;;;;;;;;;5079693;28;20104;-79
2023/12/13 01:46:50;;;;;;;19.20;14.32;;;;;;;;;;5079258;28;20384;-78
2023/12/13 01:49:16;;;;;;;20.80;14.63;;;;;;;;;;5096281;28;20055;-79
2023/12/13 01:51:43;;;;;;;19.42;13.20;;;;;;;;;;5096434;28;20414;-79
2023/12/13 01:54:11;;;;;;;21.35;14.88;;;;;;;;;;5062589;28;20055;-79
2023/12/13 01:56:42;;;;;;;17.08;12.77;;;;;;;;;;5097269;28;20036;-78
2023/12/13 01:59:09;;;;;;;17.80;12.77;;;;;;;;;;5096356;28;20055;-78
2023/12/13 02:01:35;;;;;;;19.02;12.65;;;;;;;;;;5096297;28;20388;-78
2023/12/13 02:04:02;;;;;;;16.35;12.85;;;;;;;;;;5079632;28;20152;-78
2023/12/13 02:06:28;;;;;;;17.17;12.27;;;;;;;;;;5079328;28;20051;-78
2023/12/13 02:08:54;;;;;;;15.07;12.00;;;;;;;;;;5079331;28;20079;-78
2023/12/13 02:11:20;;;;;;;16.08;11.65;;;;;;;;;;5096240;28;20558;-78
2023/12/13 02:13:46;;;;;;;15.00;12.77;;;;;;;;;;5097097;28;20090;-78
2023/12/13 02:16:12;;;;;;;14.75;12.95;;;;;;;;;;5097017;28;20135;-78
2023/12/13 02:18:38;;;;;;;14.07;12.10;;;;;;;;;;5095893;28;20048;-79
2023/12/13 02:21:05;;;;;;;15.30;12.88;;;;;;;;;;5095838;28;20040;-78
2023/12/13 02:23:31;;;;;;;16.90;13.25;;;;;;;;;;5096169;28;20127;-79
2023/12/13 02:25:59;;;;;;;15.13;12.43;;;;;;;;;;5114004;28;20097;-80
2023/12/13 02:28:25;;;;;;;16.23;12.90;;;;;;;;;;5096174;28;20044;-79
2023/12/13 02:30:53;;;;;;;17.58;13.10;;;;;;;;;;5096028;28;20066;-78
2023/12/13 02:33:23;;;;;;;17.65;13.82;;;;;;;;;;5079953;28;20464;-79
2023/12/13 02:35:49;;;;;;;14.23;12.73;;;;;;;;;;5078688;28;20042;-79
2023/12/13 02:38:15;;;;;;;17.42;13.57;;;;;;;;;;5096032;28;20064;-79
2023/12/13 02:40:42;;;;;;;20.75;14.10;;;;;;;;;;5096040;28;20130;-79
2023/12/13 02:43:08;;;;;;;16.63;12.90;;;;;;;;;;5078780;28;20055;-79
2023/12/13 02:45:34;;;;;;;18.13;14.18;;;;;;;;;;5096577;28;20040;-78
2023/12/13 02:48:00;;;;;;;18.92;16.02;;;;;;;;;;5079073;28;20051;-78
2023/12/13 02:50:26;;;;;;;19.35;13.57;;;;;;;;;;5079633;28;20527;-78
2023/12/13 02:52:52;;;;;;;17.80;14.77;;;;;;;;;;5095777;28;20048;-78
2023/12/13 02:55:18;;;;;;;19.20;14.52;;;;;;;;;;5079063;28;20472;-79
2023/12/13 02:57:44;;;;;;;23.20;16.30;;;;;;;;;;5095595;28;20463;-78
2023/12/13 03:00:11;;;;;;;18.52;14.63;;;;;;;;;;5078876;28;20445;-80
2023/12/13 03:02:37;;;;;;;18.65;15.55;;;;;;;;;;5095759;28;20387;-79
2023/12/13 03:05:03;;;;;;;19.42;15.38;;;;;;;;;;5080992;28;20101;-79
2023/12/13 03:07:29;;;;;;;23.55;16.45;;;;;;;;;;5099447;28;20048;-79
2023/12/13 03:09:56;;;;;;;22.65;16.67;;;;;;;;;;5099970;28;20479;-79
2023/12/13 03:12:22;;;;;;;23.38;17.55;;;;;;;;;;5099454;28;20506;-79
2023/12/13 03:14:48;;;;;;;23.13;17.75;;;;;;;;;;5100283;28;20047;-79
2023/12/13 03:17:14;;;;;;;19.58;16.52;;;;;;;;;;5082265;28;20440;-78
2023/12/13 03:19:40;;;;;;;22.33;16.98;;;;;;;;;;5098793;28;20050;-79
2023/12/13 03:22:06;;;;;;;21.10;17.42;;;;;;;;;;5099255;28;20475;-79
2023/12/13 03:24:32;;;;;;;24.88;18.38;;;;;;;;;;5082477;28;20052;-79
2023/12/13 03:26:59;;;;;;;20.73;16.38;;;;;;;;;;5083180;28;20044;-79
2023/12/13 03:29:25;;;;;;;25.67;17.52;;;;;;;;;;5099167;28;20134;-79
2023/12/13 03:31:51;;;;;;;24.08;17.15;;;;;;;;;;5099877;28;20051;-79
2023/12/13 03:34:17;;;;;;;25.95;17.83;;;;;;;;;;5099299;28;20057;-79
2023/12/13 03:36:43;;;;;;;18.65;16.17;;;;;;;;;;5082233;28;20047;-79
2023/12/13 03:39:09;;;;;;;22.42;17.48;;;;;;;;;;5098635;28;20054;-79
2023/12/13 03:41:35;;;;;;;22.70;18.23;;;;;;;;;;5082060;28;20139;-79
2023/12/13 03:44:01;;;;;;;21.17;17.45;;;;;;;;;;5081980;28;20051;-79
2023/12/13 03:46:27;;;;;;;25.40;17.40;;;;;;;;;;5098549;28;20150;-79
2023/12/13 03:48:53;;;;;;;21.65;17.00;;;;;;;;;;5098548;28;20044;-80
2023/12/13 03:51:20;;;;;;;23.15;17.20;;;;;;;;;;5117265;28;20352;-80
2023/12/13 03:53:46;;;;;;;21.48;17.45;;;;;;;;;;5099247;28;20474;-79
2023/12/13 03:56:12;;;;;;;20.95;16.58;;;;;;;;;;5098592;28;20044;-79
2023/12/13 03:58:39;;;;;;;23.10;16.95;;;;;;;;;;5081385;28;20047;-79
2023/12/13 04:01:05;;;;;;;18.00;15.50;;;;;;;;;;5098759;28;20047;-78
2023/12/13 04:03:34;;;;;;;22.30;17.23;;;;;;;;;;5098423;28;20184;-78
2023/12/13 04:06:00;;;;;;;21.88;17.35;;;;;;;;;;5081708;28;20468;-79
2023/12/13 04:08:26;;;;;;;19.90;17.17;;;;;;;;;;5098120;28;20477;-79
2023/12/13 04:10:52;;;;;;;21.38;17.02;;;;;;;;;;5081498;28;20498;-79
2023/12/13 04:13:18;;;;;;;26.67;18.48;;;;;;;;;;5081388;28;20480;-79
2023/12/13 04:15:44;;;;;;;21.20;17.77;;;;;;;;;;5080670;28;20050;-80
2023/12/13 04:18:10;;;;;;;19.67;15.40;;;;;;;;;;5082073;28;20047;-79
2023/12/13 04:20:36;;;;;;;23.92;19.52;;;;;;;;;;5098166;28;20464;-79
2023/12/13 04:23:02;;;;;;;25.33;17.90;;;;;;;;;;5064590;28;20138;-79
2023/12/13 04:25:28;;;;;;;24.25;17.92;;;;;;;;;;5098035;28;20108;-78
2023/12/13 04:27:54;;;;;;;22.75;18.05;;;;;;;;;;5081481;28;20051;-78
2023/12/13 04:30:20;;;;;;;23.40;17.95;;;;;;;;;;5097361;28;20094;-77
2023/12/13 04:32:46;;;;;;;22.58;19.10;;;;;;;;;;5080691;28;20104;-77
2023/12/13 04:35:12;;;;;;;26.13;19.17;;;;;;;;;;5097384;28;20048;-77
2023/12/13 04:37:38;;;;;;;25.05;19.15;;;;;;;;;;5097999;28;20097;-77
2023/12/13 04:40:06;;;;;;;22.83;19.02;;;;;;;;;;5097748;28;20495;-77
2023/12/13 04:42:32;;;;;;;25.73;20.17;;;;;;;;;;5098504;28;20044;-77
2023/12/13 04:44:58;;;;;;;26.73;20.02;;;;;;;;;;5098462;28;20083;-78
2023/12/13 04:47:25;;;;;;;24.77;18.55;;;;;;;;;;5079983;28;20056;-78
2023/12/13 04:49:51;;;;;;;25.63;18.67;;;;;;;;;;5080098;28;20048;-80
2023/12/13 04:52:17;;;;;;;26.83;19.48;;;;;;;;;;5097320;28;20043;-79
2023/12/13 04:54:43;;;;;;;28.67;19.92;;;;;;;;;;5097452;28;20130;-79
2023/12/13 04:57:09;;;;;;;25.17;18.52;;;;;;;;;;5097721;28;20137;-79
2023/12/13 04:59:36;;;;;;;26.45;19.52;;;;;;;;;;5097233;28;20124;-79
2023/12/13 05:02:02;;;;;;;25.40;20.23;;;;;;;;;;5080416;28;20051;-79
2023/12/13 05:04:28;;;;;;;26.60;19.23;;;;;;;;;;5080670;28;20048;-79
2023/12/13 05:06:54;;;;;;;22.25;18.73;;;;;;;;;;5080318;28;20051;-79
2023/12/13 05:09:20;;;;;;;22.80;18.40;;;;;;;;;;5080975;28;20434;-80
2023/12/13 05:11:46;;;;;;;22.77;19.65;;;;;;;;;;5098073;28;20048;-79
2023/12/13 05:14:12;;;;;;;26.30;20.02;;;;;;;;;;5097359;28;20043;-79
2023/12/13 05:16:38;;;;;;;27.65;19.83;;;;;;;;;;5080099;28;20104;-79
2023/12/13 05:19:04;;;;;;;23.80;19.52;;;;;;;;;;5096713;28;20043;-79
2023/12/13 05:21:31;;;;;;;30.90;20.88;;;;;;;;;;5096996;28;20497;-79
2023/12/13 05:23:57;;;;;;;23.13;18.45;;;;;;;;;;5063913;28;20079;-79
2023/12/13 05:26:23;;;;;;;25.80;19.88;;;;;;;;;;5096903;28;20097;-79
2023/12/13 05:28:49;;;;;;;26.55;19.52;;;;;;;;;;5097586;28;20039;-79
2023/12/13 05:31:22;;;;;;;33.60;20.38;;;;;;;;;;5097352;28;20083;-79
2023/12/13 05:33:48;;;;;;;23.02;17.85;;;;;;;;;;5079908;28;20044;-80
2023/12/13 05:36:14;;;;;;;24.38;18.58;;;;;;;;;;5096772;28;20043;-81
2023/12/13 05:38:41;;;;;;;27.85;20.17;;;;;;;;;;5097525;28;20372;-79
2023/12/13 05:41:07;;;;;;;27.88;19.15;;;;;;;;;;5096269;28;20036;-79
2023/12/13 05:43:36;;;;;;;28.90;19.27;;;;;;;;;;5096555;28;20134;-79
2023/12/13 05:46:06;;;;;;;25.25;19.52;;;;;;;;;;5096237;28;20570;-79
2023/12/13 05:48:32;;;;;;;24.10;18.95;;;;;;;;;;5096471;28;20415;-79
2023/12/13 05:51:01;;;;;;;25.35;19.33;;;;;;;;;;5096526;28;20055;-79
2023/12/13 05:53:31;;;;;;;24.85;18.35;;;;;;;;;;5096451;28;20042;-79
2023/12/13 05:55:57;;;;;;;25.67;18.65;;;;;;;;;;5097283;28;20178;-79
2023/12/13 05:58:23;;;;;;;21.52;17.85;;;;;;;;;;5097252;28;20044;-79
2023/12/13 06:00:50;;;;;;;26.65;18.02;;;;;;;;;;5097217;28;20039;-79
2023/12/13 06:03:16;;;;;;;21.33;17.15;;;;;;;;;;5079859;28;20050;-80
2023/12/13 06:05:42;;;;;;;23.30;17.95;;;;;;;;;;5096290;28;20123;-80
2023/12/13 06:08:08;;;;;;;20.90;17.00;;;;;;;;;;5096113;28;20047;-80
2023/12/13 06:10:34;;;;;;;22.25;18.23;;;;;;;;;;5096272;28;20047;-80
2023/12/13 06:13:00;;;;;;;24.70;17.77;;;;;;;;;;5096238;28;20051;-79
2023/12/13 06:15:26;;;;;;;22.00;18.27;;;;;;;;;;5079510;28;20043;-80
2023/12/13 06:17:52;;;;;;;29.88;19.30;;;;;;;;;;5079405;28;20043;-79
2023/12/13 06:20:18;;;;;;;24.80;18.77;;;;;;;;;;5097012;28;20062;-79
2023/12/13 06:22:44;;;;;;;25.83;18.42;;;;;;;;;;5079383;28;20055;-79
2023/12/13 06:25:11;;;;;;;22.67;18.48;;;;;;;;;;5095918;28;20043;-79
2023/12/13 06:27:37;;;;;;;20.08;17.27;;;;;;;;;;5096948;28;20439;-79
2023/12/13 06:30:03;;;;;;;31.55;19.38;;;;;;;;;;5096600;28;20043;-79
2023/12/13 06:32:29;;;;;;;25.48;19.98;;;;;;;;;;5096326;28;20130;-79
2023/12/13 06:34:55;;;;;;;23.98;18.27;;;;;;;;;;5096038;28;20047;-79
2023/12/13 06:37:21;;;;;;;26.67;18.27;;;;;;;;;;5095999;28;20055;-79
2023/12/13 06:39:47;;;;;;;28.25;18.42;;;;;;;;;;5097943;28;20051;-80
2023/12/13 06:42:13;;;;;;;23.27;18.95;;;;;;;;;;5083342;28;20486;-79
2023/12/13 06:44:41;;;;;;;22.52;18.35;;;;;;;;;;5099955;28;20113;-80
2023/12/13 06:47:07;;;;;;;27.48;17.98;;;;;;;;;;5099451;28;20555;-79
2023/12/13 06:49:34;;;;;;;24.05;17.98;;;;;;;;;;5099650;28;20047;-80
2023/12/13 06:52:00;;;;;;;22.98;17.63;;;;;;;;;;5099825;28;20518;-79
2023/12/13 06:54:28;;;;;;;28.85;18.45;;;;;;;;;;5100551;28;20055;-81
2023/12/13 06:56:54;;;;;;;28.35;20.90;;;;;;;;;;5066373;28;20047;-79
2023/12/13 06:59:20;;;;;;;26.55;19.42;;;;;;;;;;5100549;28;20047;-79
2023/12/13 07:01:46;;;;;;;19.77;17.20;;;;;;;;;;5099678;28;20138;-80
2023/12/13 07:04:13;;;;;;;28.02;18.08;;;;;;;;;;5082798;28;20051;-80
2023/12/13 07:06:39;;;;;;;24.42;17.85;;;;;;;;;;5082544;28;20135;-80
2023/12/13 07:09:05;;;;;;;22.45;17.50;;;;;;;;;;5065980;28;20046;-79
2023/12/13 07:11:31;;;;;;;23.85;17.17;;;;;;;;;;5082935;28;20055;-79
2023/12/13 07:13:57;;;;;;;23.70;16.42;;;;;;;;;;5099444;28;20086;-79
2023/12/13 07:16:23;;;;;;;26.52;17.83;;;;;;;;;;5100253;28;20047;-79
2023/12/13 07:18:49;;;;;;;22.48;17.73;;;;;;;;;;5099402;28;20055;-79
2023/12/13 07:21:15;;;;;;;29.17;18.70;;;;;;;;;;5099106;28;20044;-79
2023/12/13 07:23:41;;;;;;;25.70;17.83;;;;;;;;;;5099299;28;20048;-79
2023/12/13 07:26:07;;;;;;;26.85;17.90;;;;;;;;;;5098976;28;20520;-79
2023/12/13 07:28:33;;;;;;;26.35;18.70;;;;;;;;;;5099113;28;20039;-79
2023/12/13 07:31:04;;;;;;;25.95;17.73;;;;;;;;;;5099140;28;20040;-79
2023/12/13 07:33:31;;;;;;;28.92;20.65;;;;;;;;;;5099094;28;20122;-79
2023/12/13 07:35:57;;;;;;;25.83;18.58;;;;;;;;;;5098942;28;20040;-80
2023/12/13 07:38:24;;;;;;;28.48;19.10;;;;;;;;;;5098688;28;20130;-79
2023/12/13 07:40:50;;;;;;;26.27;19.35;;;;;;;;;;5066366;28;20078;-79
2023/12/13 07:43:17;;;;;;;27.52;19.17;;;;;;;;;;5082018;28;20044;-79
2023/12/13 07:45:43;;;;;;;32.75;19.73;;;;;;;;;;5081584;28;20055;-79
2023/12/13 07:48:09;;;;;;;26.50;19.08;;;;;;;;;;5099079;28;20050;-79
2023/12/13 07:50:35;;;;;;;26.90;20.10;;;;;;;;;;5081931;28;20043;-79
2023/12/13 07:53:01;;;;;;;29.40;19.55;;;;;;;;;;5081119;28;20058;-79
2023/12/13 07:55:27;;;;;;;30.27;19.80;;;;;;;;;;5098387;28;20039;-79
2023/12/13 07:57:53;;;;;;;26.15;19.45;;;;;;;;;;5099477;28;20104;-79
2023/12/13 08:00:20;;;;;;;31.30;20.30;;;;;;;;;;5098564;28;20040;-79
2023/12/13 08:02:46;;;;;;;26.63;18.70;;;;;;;;;;5081414;28;20138;-79
2023/12/13 08:05:13;;;;;;;33.78;19.90;;;;;;;;;;5098154;28;20483;-79
2023/12/13 08:07:39;;;;;;;26.25;18.10;;;;;;;;;;5117226;28;20059;-79
2023/12/13 08:10:07;;;;;;;28.40;20.20;;;;;;;;;;5098880;28;20043;-79
2023/12/13 08:12:36;;;;;;;31.30;18.80;;;;;;;;;;5098073;28;20548;-79
2023/12/13 08:15:05;;;;;;;30.10;19.88;;;;;;;;;;5098090;28;20043;-79
2023/12/13 08:17:33;;;;;;;39.00;20.00;;;;;;;;;;5081059;28;20058;-79
2023/12/13 08:20:00;;;;;;;31.35;19.00;;;;;;;;;;5097646;28;20047;-79
2023/12/13 08:22:26;;;;;;;22.42;18.08;;;;;;;;;;5098243;28;20120;-80
2023/12/13 08:24:52;;;;;;;22.70;18.13;;;;;;;;;;5081667;28;20122;-79
2023/12/13 08:27:18;;;;;;;27.42;16.70;;;;;;;;;;5081126;28;20047;-79
2023/12/13 08:29:44;;;;;;;22.13;16.55;;;;;;;;;;5097974;28;20043;-79
2023/12/13 08:32:10;;;;;;;24.65;16.40;;;;;;;;;;5081000;28;20158;-79
2023/12/13 08:34:43;;;;;;;22.50;16.70;;;;;;;;;;5097880;28;20536;-79
2023/12/13 08:37:09;;;;;;;25.85;16.80;;;;;;;;;;5098616;28;20047;-79
2023/12/13 08:39:35;;;;;;;22.85;16.40;;;;;;;;;;5098675;28;20052;-79
2023/12/13 08:42:01;;;;;;;23.00;17.90;;;;;;;;;;5097762;28;20043;-79
2023/12/13 08:44:27;;;;;;;23.80;17.25;;;;;;;;;;5098523;28;20086;-79
2023/12/13 08:46:53;;;;;;;22.25;17.10;;;;;;;;;;5097217;28;20108;-79
2023/12/13 08:49:19;;;;;;;20.23;16.27;;;;;;;;;;5097649;28;20051;-79
2023/12/13 08:51:49;;;;;;;21.17;16.30;;;;;;;;;;5097404;28;20052;-79
2023/12/13 08:54:15;;;;;;;24.38;16.80;;;;;;;;;;5097793;28;20428;-79
2023/12/13 08:56:41;;;;;;;20.67;14.90;;;;;;;;;;5081439;28;20503;-79
2023/12/13 08:59:07;;;;;;;23.02;15.65;;;;;;;;;;5098334;28;20360;-78
2023/12/13 09:01:33;;;;;;;19.58;15.65;;;;;;;;;;5097437;28;20189;-81
2023/12/13 09:03:59;;;;;;;26.70;16.80;;;;;;;;;;5080199;28;20043;-79
2023/12/13 09:06:25;;;;;;;23.55;15.88;;;;;;;;;;5097260;28;20139;-79
2023/12/13 09:08:51;;;;;;;22.00;16.08;;;;;;;;;;5115207;28;20039;-78
2023/12/13 09:11:18;;;;;;;21.90;16.40;;;;;;;;;;5081252;28;20101;-79
2023/12/13 09:13:44;;;;;;;24.05;15.13;;;;;;;;;;5080266;28;20049;-80
2023/12/13 09:16:12;;;;;;;20.80;15.80;;;;;;;;;;5097093;28;20101;-80
2023/12/13 09:18:42;;;;;;;22.48;16.80;;;;;;;;;;5097364;28;20051;-79
2023/12/13 09:21:08;;;;;;;23.13;15.82;;;;;;;;;;5097820;28;20047;-78
2023/12/13 09:23:36;;;;;;;22.50;15.93;;;;;;;;;;5097840;28;20043;-79
2023/12/13 09:26:04;;;;;;;23.40;15.90;;;;;;;;;;5079996;28;20051;-78
2023/12/13 09:28:30;;;;;;;18.38;15.73;;;;;;;;;;5096776;28;20044;-79
2023/12/13 09:30:57;;;;;;;20.15;15.45;;;;;;;;;;5097139;28;20090;-79
2023/12/13 09:33:23;;;;;;;21.08;16.10;;;;;;;;;;5097138;28;20403;-79
2023/12/13 09:35:49;;;;;;;20.70;16.13;;;;;;;;;;5096542;28;20046;-78
2023/12/13 09:38:16;;;;;;;21.00;15.52;;;;;;;;;;5096679;28;20039;-79
2023/12/13 09:40:42;;;;;;;21.52;15.23;;;;;;;;;;5080328;28;20064;-78
2023/12/13 09:43:09;;;;;;;20.77;14.73;;;;;;;;;;5080620;28;20048;-78
2023/12/13 09:45:38;;;;;;;23.23;15.80;;;;;;;;;;5096470;28;20067;-78
2023/12/13 09:48:04;;;;;;;22.30;16.63;;;;;;;;;;5079713;28;20503;-78
2023/12/13 09:50:34;;;;;;;20.90;15.48;;;;;;;;;;5079139;28;20136;-79
2023/12/13 09:53:00;;;;;;;20.08;15.57;;;;;;;;;;5096565;28;20052;-78
2023/12/13 09:55:26;;;;;;;21.20;15.82;;;;;;;;;;5079666;28;20047;-79
2023/12/13 09:57:53;;;;;;;20.90;15.10;;;;;;;;;;5096455;28;20104;-79
2023/12/13 10:00:19;;;;;;;20.98;14.85;;;;;;;;;;5079550;28;20428;-78
2023/12/13 10:02:48;;;;;;;19.52;15.38;;;;;;;;;;5096092;28;20042;-79
2023/12/13 10:05:17;;;;;;;22.48;15.13;;;;;;;;;;5096367;28;20043;-78
2023/12/13 10:07:43;;;;;;;18.50;15.27;;;;;;;;;;5080234;28;20052;-79
2023/12/13 10:10:09;;;;;;;22.95;15.80;;;;;;;;;;5096307;28;20044;-79
2023/12/13 10:12:36;;;;;;;22.95;16.25;;;;;;;;;;5095974;28;20100;-78
2023/12/13 10:15:10;;;;;;;22.88;17.27;;;;;;;;;;5079204;28;20052;-79
2023/12/13 10:17:36;;;;;;;20.98;16.13;;;;;;;;;;5096273;28;20039;-78
2023/12/13 10:20:03;;;;;;;24.60;16.33;;;;;;;;;;5096225;28;20070;-79
2023/12/13 10:22:29;;;;;;;19.90;16.50;;;;;;;;;;5096880;28;20044;-79
2023/12/13 10:24:57;;;;;;;24.38;17.48;;;;;;;;;;5079372;28;20044;-78
2023/12/13 10:27:23;;;;;;;20.42;16.08;;;;;;;;;;5114138;28;20086;-78
2023/12/13 10:29:51;;;;;;;19.45;17.00;;;;;;;;;;5095851;28;20047;-78
2023/12/13 10:32:18;;;;;;;20.35;16.73;;;;;;;;;;5096157;28;20130;-78
2023/12/13 10:34:44;;;;;;;23.13;17.45;;;;;;;;;;5095654;28;20056;-78
2023/12/13 10:37:11;;;;;;;18.88;15.80;;;;;;;;;;5078902;28;20514;-78
2023/12/13 10:39:37;;;;;;;23.55;17.50;;;;;;;;;;5114025;28;20127;-78
2023/12/13 10:42:04;;;;;;;20.20;16.58;;;;;;;;;;5079151;28;20044;-78
2023/12/13 10:44:32;;;;;;;23.13;17.13;;;;;;;;;;5114010;28;20130;-78
2023/12/13 10:46:59;;;;;;;20.27;16.60;;;;;;;;;;5095696;28;20564;-78
2023/12/13 10:49:26;;;;;;;21.83;18.35;;;;;;;;;;5114540;28;20052;-78
2023/12/13 10:51:52;;;;;;;22.75;17.05;;;;;;;;;;5095907;28;20040;-78
2023/12/13 10:54:19;;;;;;;20.17;17.77;;;;;;;;;;5095973;28;20047;-78
2023/12/13 10:56:45;;;;;;;20.25;18.13;;;;;;;;;;5095853;28;20468;-78
2023/12/13 10:59:12;;;;;;;22.65;18.38;;;;;;;;;;5096633;28;20048;-78
2023/12/13 11:01:41;;;;;;;21.80;17.65;;;;;;;;;;5096686;28;20051;-78
2023/12/13 11:04:09;;;;;;;21.73;18.27;;;;;;;;;;5096138;28;20092;-78
2023/12/13 11:06:36;;;;;;;21.23;17.38;;;;;;;;;;5095968;28;20044;-78
2023/12/13 11:09:13;;;;;;;22.88;18.60;;;;;;;;;;5096448;28;20040;-78
2023/12/13 11:11:39;;;;;;;22.83;17.88;;;;;;;;;;5096582;28;20467;-78
2023/12/13 11:14:06;;;;;;;22.35;17.83;;;;;;;;;;5096438;28;20046;-79
2023/12/13 11:16:38;;;;;;;24.38;19.08;;;;;;;;;;5095983;28;20066;-78
2023/12/13 11:19:04;;;;;;;20.02;17.85;;;;;;;;;;5096276;28;20047;-78
2023/12/13 11:21:34;;;;;;;21.80;18.38;;;;;;;;;;5079034;28;20048;-78
2023/12/13 11:24:14;;;;;;;25.20;19.15;;;;;;;;;;5095650;28;20405;-78
2023/12/13 11:26:42;;;;;;;26.30;19.42;;;;;;;;;;5098434;28;20057;-78
2023/12/13 11:29:19;;;;;;;28.17;19.63;;;;;;;;;;5099781;28;20100;-78
2023/12/13 11:31:50;;;;;;;29.38;20.00;;;;;;;;;;5099172;28;20532;-78
2023/12/13 11:34:16;;;;;;;24.50;19.80;;;;;;;;;;5099862;28;20039;-78
2023/12/13 11:36:42;;;;;;;25.17;20.20;;;;;;;;;;5116602;28;20457;-78
2023/12/13 11:39:09;;;;;;;26.58;19.52;;;;;;;;;;5117028;28;20381;-78
2023/12/13 11:41:36;;;;;;;30.45;21.63;;;;;;;;;;5082121;28;20454;-78
2023/12/13 11:44:02;;;;;;;36.22;23.73;;;;;;;;;;5099702;28;20058;-78
2023/12/13 11:46:30;;;;;;;27.60;21.30;;;;;;;;;;5099684;28;20047;-78
2023/12/13 11:48:57;;;;;;;28.35;21.30;;;;;;;;;;5098494;28;20081;-78
2023/12/13 11:51:23;;;;;;;27.42;21.20;;;;;;;;;;5082660;28;20044;-77
2023/12/13 11:53:49;;;;;;;24.92;21.17;;;;;;;;;;5098731;28;20079;-78
2023/12/13 11:56:18;;;;;;;23.95;20.77;;;;;;;;;;5099506;28;20070;-78
2023/12/13 11:58:44;;;;;;;27.38;21.48;;;;;;;;;;5081748;28;20112;-78
2023/12/13 12:01:13;;;;;;;26.95;20.42;;;;;;;;;;5098479;28;20044;-78
2023/12/13 12:03:39;;;;;;;29.45;22.73;;;;;;;;;;5082118;28;20052;-78
2023/12/13 12:06:15;;;;;;;27.77;22.67;;;;;;;;;;5098510;28;20111;-78
2023/12/13 12:08:42;;;;;;;25.02;22.17;;;;;;;;;;5097988;28;20039;-78
2023/12/13 12:11:08;;;;;;;28.73;22.77;;;;;;;;;;5065724;28;20047;-78
2023/12/13 12:13:34;;;;;;;28.15;23.00;;;;;;;;;;5098369;28;20044;-78
2023/12/13 12:16:00;;;;;;;28.23;23.30;;;;;;;;;;5098612;28;20496;-78
2023/12/13 12:18:27;;;;;;;35.08;25.20;;;;;;;;;;5098271;28;20048;-78
2023/12/13 12:20:53;;;;;;;34.78;25.80;;;;;;;;;;5098225;28;20382;-78
2023/12/13 12:23:19;;;;;;;37.35;26.20;;;;;;;;;;5116157;28;20051;-78
2023/12/13 12:25:45;;;;;;;32.85;25.30;;;;;;;;;;5098966;28;20066;-78
2023/12/13 12:28:11;;;;;;;32.25;25.40;;;;;;;;;;5098911;28;20047;-78
2023/12/13 12:30:42;;;;;;;35.38;24.60;;;;;;;;;;5097660;28;20571;-78
2023/12/13 12:33:09;;;;;;;28.52;22.80;;;;;;;;;;5098866;28;20074;-78
2023/12/13 12:35:35;;;;;;;32.17;22.15;;;;;;;;;;5081093;28;20490;-78
2023/12/13 12:38:03;;;;;;;29.35;22.63;;;;;;;;;;5081118;28;20039;-78
2023/12/13 12:40:29;;;;;;;29.48;23.60;;;;;;;;;;5081047;28;20050;-78
2023/12/13 12:42:55;;;;;;;30.95;25.55;;;;;;;;;;5064381;28;20391;-78
2023/12/13 12:45:21;;;;;;;31.33;25.20;;;;;;;;;;5081798;28;20127;-78
2023/12/13 12:47:47;;;;;;;29.92;25.35;;;;;;;;;;5097385;28;20048;-78
2023/12/13 12:50:14;;;;;;;30.92;25.88;;;;;;;;;;5097449;28;20096;-78
2023/12/13 12:52:42;;;;;;;33.33;26.10;;;;;;;;;;5097580;28;20047;-78
2023/12/13 12:55:08;;;;;;;34.72;25.83;;;;;;;;;;5097582;28;20062;-78
2023/12/13 12:57:34;;;;;;;31.48;25.48;;;;;;;;;;5097287;28;20578;-78
2023/12/13 13:00:00;;;;;;;32.90;26.08;;;;;;;;;;5080624;28;20059;-78
2023/12/13 13:02:27;;;;;;;31.63;25.15;;;;;;;;;;5097995;28;20604;-78
2023/12/13 13:04:53;;;;;;;33.45;26.85;;;;;;;;;;5097663;28;20036;-78
2023/12/13 13:07:19;;;;;;;32.20;26.00;;;;;;;;;;5097158;28;20054;-78
2023/12/13 13:09:45;;;;;;;32.45;27.27;;;;;;;;;;5080198;28;20039;-78
2023/12/13 13:12:11;;;;;;;36.63;28.50;;;;;;;;;;5063768;28;20138;-78
2023/12/13 13:14:39;;;;;;;28.50;24.48;;;;;;;;;;5080620;28;20047;-78
2023/12/13 13:17:05;;;;;;;32.35;25.05;;;;;;;;;;5097080;28;20048;-78
2023/12/13 13:19:31;;;;;;;30.73;24.58;;;;;;;;;;5080193;28;20047;-78
2023/12/13 13:21:57;;;;;;;30.70;23.83;;;;;;;;;;5097319;28;20055;-78
2023/12/13 13:24:23;;;;;;;30.17;24.50;;;;;;;;;;5080155;28;20059;-78
2023/12/13 13:26:50;;;;;;;30.88;24.55;;;;;;;;;;5096982;28;20532;-78
2023/12/13 13:29:16;;;;;;;29.73;24.25;;;;;;;;;;5079968;28;20048;-78
2023/12/13 13:31:42;;;;;;;33.10;23.85;;;;;;;;;;5096936;28;20053;-78
2023/12/13 13:34:08;;;;;;;31.80;24.85;;;;;;;;;;5096871;28;20437;-78
2023/12/13 13:36:34;;;;;;;27.42;23.67;;;;;;;;;;5096791;28;20081;-78
2023/12/13 13:39:00;;;;;;;30.48;25.08;;;;;;;;;;5080218;28;20052;-78
2023/12/13 13:41:28;;;;;;;30.83;24.42;;;;;;;;;;5080757;28;20082;-78
2023/12/13 13:43:54;;;;;;;47.50;25.60;;;;;;;;;;5096579;28;20450;-78
2023/12/13 13:46:20;;;;;;;31.75;24.20;;;;;;;;;;5096878;28;20235;-78
2023/12/13 13:48:46;;;;;;;32.47;23.67;;;;;;;;;;5095237;28;20615;-78
2023/12/13 13:51:13;;;;;;;31.38;24.00;;;;;;;;;;5096524;28;20047;-78
2023/12/13 13:53:40;;;;;;;31.08;23.77;;;;;;;;;;5096539;28;20090;-78
2023/12/13 13:56:06;;;;;;;31.05;23.95;;;;;;;;;;5080027;28;20046;-78
2023/12/13 13:58:32;;;;;;;36.05;24.58;;;;;;;;;;5080526;28;20044;-78
2023/12/13 14:00:58;;;;;;;35.42;26.25;;;;;;;;;;5079524;28;20051;-78
2023/12/13 14:03:24;;;;;;;32.60;25.50;;;;;;;;;;5079459;28;20062;-78
2023/12/13 14:05:54;;;;;;;35.05;26.08;;;;;;;;;;5096524;28;20047;-78
2023/12/13 14:08:20;;;;;;;35.55;24.05;;;;;;;;;;5095832;28;20089;-77
2023/12/13 14:10:48;;;;;;;38.13;25.20;;;;;;;;;;5079493;28;20471;-78
2023/12/13 14:13:15;;;;;;;35.42;25.23;;;;;;;;;;5079449;28;20058;-79